Time;durP1;ratioP1;P1;durP2;ratioP2;P2;SDS_P1;SDS_P2;PMS_P1;PMS_P2;Temp;Humidity;BMP_temperature;BMP_pressure;BME280_temperature;BME280_humidity;BME280_pressure;Samples;Min_cycle;Max_cycle;Signal;HPM_P1;HPM_P2
2022/01/28 00:00:51;;;;;;;13.80;7.20;;;;;;;3.11;85.90;99295.20;84577;1330;23804;-75
2022/01/28 00:03:05;;;;;;;12.40;6.80;;;;;;;3.10;85.97;99291.76;84575;1330;22621;-76
2022/01/28 00:05:17;;;;;;;12.90;6.80;;;;;;;3.11;86.05;99290.70;84520;1335;22774;-74
2022/01/28 00:07:23;;;;;;;12.60;6.80;;;;;;;3.14;86.20;99289.26;84554;1333;22724;-75
2022/01/28 00:09:29;;;;;;;8.80;6.10;;;;;;;3.17;86.28;99290.23;84576;1330;23067;-75
2022/01/28 00:11:38;;;;;;;11.60;6.80;;;;;;;3.20;86.15;99295.98;84551;1330;22656;-75
2022/01/28 00:13:54;;;;;;;12.40;6.60;;;;;;;3.23;86.08;99293.35;84587;1329;22644;-75
2022/01/28 00:18:54;;;;;;;12.30;6.60;;;;;;;3.25;85.89;99293.63;84460;1332;22621;-81
2022/01/28 00:38:25;;;;;;;11.10;5.70;;;;;;;3.25;85.04;99279.50;84343;1339;26484;-82
2022/01/28 00:40:35;;;;;;;9.90;5.60;;;;;;;3.20;85.20;99281.34;84405;1335;23810;-75
2022/01/28 00:42:41;;;;;;;8.80;6.40;;;;;;;3.16;85.14;99282.84;84393;1335;22626;-75
2022/01/28 00:44:50;;;;;;;10.20;6.30;;;;;;;3.12;84.92;99282.06;84385;1338;22669;-74
2022/01/28 00:46:56;;;;;;;12.00;5.80;;;;;;;3.10;84.84;99279.36;84406;1331;23953;-76
2022/01/28 00:49:07;;;;;;;8.90;4.60;;;;;;;3.08;84.85;99273.73;83883;1333;1003142;-73
2022/01/28 00:51:13;;;;;;;9.50;4.20;;;;;;;3.07;84.62;99274.79;84550;1330;22626;-75
2022/01/28 00:53:19;;;;;;;7.70;4.30;;;;;;;3.07;84.65;99271.33;84546;1334;24133;-75
2022/01/28 00:55:26;;;;;;;8.30;4.60;;;;;;;3.07;84.53;99274.61;84497;1336;24387;-76
2022/01/28 00:57:35;;;;;;;6.70;4.40;;;;;;;3.06;84.75;99275.51;84573;1333;22759;-81
2022/01/28 00:59:45;;;;;;;8.40;4.80;;;;;;;3.05;84.85;99272.77;84620;1326;22636;-82
2022/01/28 01:01:51;;;;;;;6.80;4.10;;;;;;;3.03;84.51;99275.05;84600;1329;25507;-81
2022/01/28 01:04:01;;;;;;;5.80;4.10;;;;;;;3.00;84.32;99268.23;84493;1332;22951;-80
2022/01/28 01:06:07;;;;;;;10.30;3.80;;;;;;;2.98;84.45;99268.13;84674;1330;22620;-81
2022/01/28 01:08:13;;;;;;;7.10;4.20;;;;;;;2.94;84.34;99261.14;84626;1329;23230;-82
2022/01/28 01:10:19;;;;;;;7.70;4.20;;;;;;;2.92;84.31;99256.72;84619;1332;24074;-81
2022/01/28 01:12:27;;;;;;;6.00;2.70;;;;;;;2.92;84.34;99252.59;84592;1330;22611;-74
2022/01/28 01:14:33;;;;;;;7.40;3.30;;;;;;;2.93;84.30;99247.40;84539;1334;25450;-73
2022/01/28 01:16:58;;;;;;;6.30;3.00;;;;;;;2.93;84.16;99244.12;84594;1330;22623;-74
2022/01/28 01:19:16;;;;;;;5.80;3.30;;;;;;;2.93;84.11;99241.04;84546;1332;22632;-74
2022/01/28 01:21:24;;;;;;;7.30;2.70;;;;;;;2.93;84.28;99237.24;84470;1336;22950;-82
2022/01/28 01:23:33;;;;;;;10.90;3.40;;;;;;;2.90;83.97;99228.70;84578;1331;25658;-83
2022/01/28 01:25:48;;;;;;;4.80;3.00;;;;;;;2.87;83.89;99225.15;84601;1329;22641;-82
2022/01/28 01:27:58;;;;;;;7.20;3.20;;;;;;;2.84;83.98;99221.44;84591;1330;22601;-82
2022/01/28 01:30:05;;;;;;;5.90;3.00;;;;;;;2.82;83.81;99214.27;84583;1330;22929;-82
2022/01/28 01:32:14;;;;;;;5.80;3.30;;;;;;;2.78;83.71;99208.49;84647;1329;22868;-83
2022/01/28 01:34:22;;;;;;;6.10;2.60;;;;;;;2.77;83.85;99207.84;84605;1331;23818;-82
2022/01/28 01:36:29;;;;;;;9.60;2.60;;;;;;;2.76;83.75;99201.83;84588;1326;22607;-81
2022/01/28 01:38:38;;;;;;;5.50;2.50;;;;;;;2.77;83.78;99195.62;84562;1329;23812;-81
2022/01/28 01:40:49;;;;;;;4.70;2.40;;;;;;;2.77;83.35;99191.99;84568;1327;22630;-74
2022/01/28 01:43:07;;;;;;;9.80;3.10;;;;;;;2.78;83.64;99192.30;84564;1329;24033;-73
2022/01/28 01:52:39;;;;;;;5.70;2.10;;;;;;;2.76;83.40;99174.98;84423;1336;22616;-82
2022/01/28 01:54:46;;;;;;;5.30;1.70;;;;;;;2.77;83.38;99176.52;84396;1336;22626;-81
2022/01/28 01:56:52;;;;;;;6.40;1.90;;;;;;;2.78;83.33;99169.41;84408;1334;23838;-82
2022/01/28 01:59:01;;;;;;;7.50;2.90;;;;;;;2.81;83.24;99170.55;84385;1331;25530;-82
2022/01/28 02:01:11;;;;;;;3.60;1.90;;;;;;;2.83;82.92;99159.27;84394;1334;23936;-74
2022/01/28 02:03:17;;;;;;;5.50;1.90;;;;;;;2.86;82.90;99158.87;84602;1330;22555;-74
2022/01/28 02:05:26;;;;;;;7.50;3.80;;;;;;;2.89;82.79;99151.38;84568;1329;22715;-75
2022/01/28 02:07:35;;;;;;;5.20;2.30;;;;;;;2.90;82.64;99150.83;84592;1329;22616;-75
2022/01/28 02:09:42;;;;;;;5.10;2.40;;;;;;;2.92;82.46;99148.06;84566;1330;22782;-74
2022/01/28 02:11:49;;;;;;;4.70;2.30;;;;;;;2.91;82.18;99142.03;84585;1329;22612;-74
2022/01/28 02:13:55;;;;;;;7.90;2.30;;;;;;;2.91;82.33;99141.70;84584;1329;22615;-74
2022/01/28 02:16:05;;;;;;;5.10;2.00;;;;;;;2.92;82.38;99137.89;84582;1329;26871;-75
2022/01/28 02:18:12;;;;;;;7.40;2.00;;;;;;;2.92;82.29;99134.42;84559;1331;24321;-75
2022/01/28 02:20:27;;;;;;;7.40;3.30;;;;;;;2.94;81.79;99129.02;84523;1330;22611;-75
2022/01/28 02:22:35;;;;;;;5.30;2.20;;;;;;;2.96;82.16;99123.46;84550;1333;22669;-81
2022/01/28 02:24:44;;;;;;;8.00;2.80;;;;;;;2.97;82.26;99124.46;84561;1330;22614;-80
2022/01/28 02:26:54;;;;;;;3.70;2.50;;;;;;;2.98;82.12;99118.94;84571;1330;22622;-74
2022/01/28 02:29:07;;;;;;;4.70;2.50;;;;;;;2.98;82.28;99118.23;84596;1327;22612;-74
2022/01/28 02:31:21;;;;;;;10.40;3.30;;;;;;;2.97;82.32;99120.50;84600;1331;22600;-74
2022/01/28 02:33:27;;;;;;;7.20;2.10;;;;;;;2.96;82.06;99116.91;84565;1326;22618;-74
2022/01/28 02:35:34;;;;;;;9.60;3.00;;;;;;;2.95;82.31;99117.80;84478;1330;22624;-80
2022/01/28 02:37:40;;;;;;;5.40;2.50;;;;;;;2.96;82.47;99112.79;84568;1330;22768;-81
2022/01/28 02:39:46;;;;;;;5.20;2.30;;;;;;;2.97;82.69;99113.27;84575;1329;24950;-83
2022/01/28 02:42:00;;;;;;;4.50;2.10;;;;;;;2.98;82.81;99113.94;84563;1329;26524;-74
2022/01/28 02:44:16;;;;;;;7.50;3.30;;;;;;;2.99;83.10;99111.64;84557;1330;23950;-74
2022/01/28 02:46:28;;;;;;;6.40;2.30;;;;;;;3.01;83.38;99111.96;84615;1329;22789;-74
2022/01/28 02:48:37;;;;;;;5.20;2.70;;;;;;;3.01;83.30;99102.84;84510;1332;25437;-75
2022/01/28 02:50:50;;;;;;;6.70;1.90;;;;;;;3.01;83.45;99107.30;84533;1330;24007;-81
2022/01/28 02:55:17;;;;;;;4.60;2.10;;;;;;;2.96;83.71;99105.37;84584;1327;22768;-81
2022/01/28 02:57:26;;;;;;;8.20;2.30;;;;;;;2.93;83.55;99104.23;84593;1332;22611;-81
2022/01/28 02:59:32;;;;;;;3.50;2.50;;;;;;;2.92;83.66;99104.29;84589;1329;22957;-81
2022/01/28 03:01:39;;;;;;;2.40;1.20;;;;;;;2.90;83.82;99098.98;84608;1329;24230;-74
2022/01/28 03:03:47;;;;;;;4.90;1.40;;;;;;;2.90;83.74;99105.54;84555;1330;22620;-73
2022/01/28 03:05:53;;;;;;;4.00;1.30;;;;;;;2.89;83.88;99102.62;84580;1329;25507;-74
2022/01/28 03:08:03;;;;;;;6.40;1.50;;;;;;;2.90;84.08;99097.45;84554;1329;25358;-75
2022/01/28 03:10:27;;;;;;;5.00;1.70;;;;;;;2.89;84.21;99093.67;84595;1331;22674;-75
2022/01/28 03:12:37;;;;;;;6.50;2.50;;;;;;;2.85;84.12;99092.77;83883;1327;1002948;-82
2022/01/28 03:14:59;;;;;;;;;;;;;;;2.81;84.24;99088.20;84558;1330;22596;-82
2022/01/28 03:17:13;;;;;;;6.10;2.20;;;;;;;2.77;84.29;99089.70;84574;1334;22709;-75
2022/01/28 03:19:20;;;;;;;5.00;1.50;;;;;;;2.76;84.36;99086.98;84563;1333;22595;-75
2022/01/28 03:23:46;;;;;;;5.00;1.70;;;;;;;2.75;84.48;99084.59;84533;1329;22693;-77
2022/01/28 03:25:53;;;;;;;5.20;1.80;;;;;;;2.75;84.74;99077.54;84557;1331;22619;-80
2022/01/28 03:28:00;;;;;;;3.70;1.40;;;;;;;2.74;84.59;99083.22;84556;1331;24307;-79
2022/01/28 03:30:08;;;;;;;3.00;1.50;;;;;;;2.73;84.77;99086.17;84582;1329;25460;-80
2022/01/28 03:32:17;;;;;;;8.10;3.70;;;;;;;2.73;84.88;99086.02;84581;1329;23896;-81
2022/01/28 03:34:26;;;;;;;5.10;1.70;;;;;;;2.73;84.95;99085.16;84562;1329;22601;-81
2022/01/28 03:36:33;;;;;;;7.10;2.40;;;;;;;2.72;84.85;99087.77;84589;1330;26644;-75
2022/01/28 03:38:40;;;;;;;8.20;2.20;;;;;;;2.72;84.81;99091.23;84544;1329;23080;-75
2022/01/28 03:40:48;;;;;;;6.10;2.30;;;;;;;2.70;84.93;99086.42;84527;1327;22589;-82
2022/01/28 03:42:57;;;;;;;4.60;1.80;;;;;;;2.68;84.92;99086.85;84622;1321;22811;-81
2022/01/28 03:45:02;;;;;;;4.00;1.60;;;;;;;2.66;85.04;99082.75;84567;1331;22627;-81
2022/01/28 03:47:09;;;;;;;4.10;1.90;;;;;;;2.65;85.30;99084.33;84599;1329;22620;-74
2022/01/28 03:49:15;;;;;;;4.30;1.60;;;;;;;2.67;85.44;99084.13;84562;1329;22650;-74
2022/01/28 03:51:20;;;;;;;4.50;1.70;;;;;;;2.68;85.41;99080.13;84549;1329;22589;-81
2022/01/28 03:53:26;;;;;;;3.70;2.00;;;;;;;2.68;85.44;99079.95;84563;1331;22724;-81
2022/01/28 03:55:33;;;;;;;5.80;2.30;;;;;;;2.67;85.49;99077.73;84553;1332;22865;-75
2022/01/28 03:57:38;;;;;;;5.00;2.00;;;;;;;2.66;85.65;99078.80;84592;1327;22608;-74
2022/01/28 03:59:48;;;;;;;3.40;1.50;;;;;;;2.67;85.76;99079.83;84555;1330;24145;-74
2022/01/28 04:01:55;;;;;;;8.40;2.00;;;;;;;2.67;85.67;99081.88;84601;1326;22582;-82
2022/01/28 04:11:28;;;;;;;3.80;1.50;;;;;;;2.69;85.86;99081.30;84384;1334;22624;-73
2022/01/28 04:13:34;;;;;;;4.50;1.50;;;;;;;2.68;85.81;99076.84;84393;1334;22618;-74
2022/01/28 04:15:51;;;;;;;5.00;2.10;;;;;;;2.71;85.89;99081.95;84440;1333;25348;-75
2022/01/28 04:17:57;;;;;;;3.80;1.80;;;;;;;2.71;86.07;99081.77;84435;1334;22630;-75
2022/01/28 04:20:04;;;;;;;4.40;0.90;;;;;;;2.72;86.10;99079.85;84406;1334;22624;-73
2022/01/28 04:22:09;;;;;;;2.40;1.50;;;;;;;2.73;86.16;99081.89;84428;1336;26522;-81
2022/01/28 04:24:16;;;;;;;4.90;1.50;;;;;;;2.74;86.19;99086.16;84439;1332;22607;-80
2022/01/28 04:26:22;;;;;;;3.50;1.20;;;;;;;2.73;86.19;99086.01;84518;1334;24277;-82
2022/01/28 04:28:28;;;;;;;3.00;1.00;;;;;;;2.75;86.12;99087.34;84566;1330;22641;-82
2022/01/28 04:30:34;;;;;;;4.70;1.20;;;;;;;2.72;86.00;99083.10;84559;1333;23944;-80
2022/01/28 04:32:46;;;;;;;3.50;1.20;;;;;;;2.71;86.13;99086.59;84570;1331;22593;-81
2022/01/28 04:34:55;;;;;;;2.40;0.70;;;;;;;2.71;86.20;99081.26;84551;1329;22683;-81
2022/01/28 04:37:11;;;;;;;1.50;0.90;;;;;;;2.70;86.27;99088.49;84528;1329;22568;-73
2022/01/28 04:39:23;;;;;;;2.40;0.70;;;;;;;2.71;86.36;99088.83;84590;1333;25320;-73
2022/01/28 04:41:37;;;;;;;2.00;1.10;;;;;;;2.73;86.37;99098.41;84585;1332;23271;-82
2022/01/28 04:43:53;;;;;;;4.30;1.20;;;;;;;2.76;86.53;99098.17;84541;1330;22830;-82
2022/01/28 04:46:08;;;;;;;3.40;1.50;;;;;;;2.77;86.56;99100.04;84568;1333;23005;-82
2022/01/28 04:48:23;;;;;;;3.30;1.10;;;;;;;2.77;86.48;99101.41;84567;1326;22593;-80
2022/01/28 04:50:38;;;;;;;2.60;0.70;;;;;;;2.73;86.32;99103.06;84542;1323;22614;-78
2022/01/28 04:53:03;;;;;;;2.40;0.90;;;;;;;2.72;86.38;99092.27;84550;1330;22674;-74
2022/01/28 04:55:20;;;;;;;3.80;1.00;;;;;;;2.72;86.48;99098.64;84540;1330;24332;-74
2022/01/28 04:57:38;;;;;;;1.50;0.70;;;;;;;2.72;86.63;99100.52;84605;1329;23052;-82
2022/01/28 04:59:56;;;;;;;2.00;0.70;;;;;;;2.73;86.59;99104.81;84528;1332;25441;-82
2022/01/28 05:02:27;;;;;;;1.90;0.60;;;;;;;2.72;86.78;99105.50;84576;1329;22961;-75
2022/01/28 05:04:51;;;;;;;;;;;;;;;2.71;86.85;99110.01;84508;1333;22612;-74
2022/01/28 05:07:30;;;;;;;2.00;0.90;;;;;;;2.70;87.00;99110.53;83878;1330;1003821;-73
2022/01/28 05:17:19;;;;;;;1.30;0.90;;;;;;;2.75;87.31;99125.92;84545;1330;22629;-79
2022/01/28 05:26:39;;;;;;;1.50;0.70;;;;;;;2.70;87.60;99136.19;84537;1333;22617;-73
2022/01/28 05:28:46;;;;;;;1.20;0.60;;;;;;;2.70;87.66;99132.42;84589;1326;22609;-73
2022/01/28 05:30:53;;;;;;;1.10;0.50;;;;;;;2.72;87.70;99137.70;84566;1329;24267;-75
2022/01/28 05:32:59;;;;;;;1.80;0.70;;;;;;;2.75;87.76;99140.55;84550;1330;22613;-72
2022/01/28 05:35:06;;;;;;;1.20;0.60;;;;;;;2.78;87.77;99143.23;84560;1329;22627;-74
2022/01/28 05:37:15;;;;;;;1.20;0.70;;;;;;;2.80;87.72;99146.10;84541;1329;24292;-82
2022/01/28 05:39:24;;;;;;;1.20;0.60;;;;;;;2.82;87.88;99153.30;84576;1329;22910;-82
2022/01/28 05:41:33;;;;;;;4.80;0.90;;;;;;;2.81;87.77;99150.89;84600;1329;22843;-81
2022/01/28 05:43:42;;;;;;;1.80;0.50;;;;;;;2.81;87.81;99147.64;84563;1330;24265;-83
2022/01/28 05:45:48;;;;;;;2.10;0.60;;;;;;;2.82;87.66;99162.42;84602;1329;22595;-74
2022/01/28 05:47:54;;;;;;;0.60;0.50;;;;;;;2.81;87.71;99164.85;84587;1330;25376;-74
2022/01/28 05:50:04;;;;;;;0.50;0.50;;;;;;;2.83;87.80;99173.23;84565;1330;23971;-73
2022/01/28 05:52:10;;;;;;;1.70;1.10;;;;;;;2.86;87.90;99173.86;84576;1329;24414;-74
2022/01/28 05:54:19;;;;;;;0.90;0.80;;;;;;;2.87;87.68;99171.77;84548;1327;22835;-74
2022/01/28 05:56:28;;;;;;;1.30;0.90;;;;;;;2.89;87.79;99177.03;84551;1331;22649;-73
2022/01/28 05:58:37;;;;;;;3.00;0.90;;;;;;;2.90;87.77;99176.33;84620;1329;22591;-74
2022/01/28 06:00:43;;;;;;;1.50;0.90;;;;;;;2.90;87.72;99175.98;84582;1330;25566;-74
2022/01/28 06:02:49;;;;;;;1.40;0.90;;;;;;;2.91;87.82;99181.84;84555;1329;22614;-74
2022/01/28 06:04:57;;;;;;;1.20;0.90;;;;;;;2.92;87.70;99184.74;84583;1329;22605;-74
2022/01/28 06:07:04;;;;;;;1.50;0.80;;;;;;;2.94;87.90;99182.79;84603;1329;23950;-73
2022/01/28 06:09:10;;;;;;;1.70;0.70;;;;;;;2.93;87.77;99187.61;84569;1330;22596;-74
2022/01/28 06:11:16;;;;;;;1.30;0.60;;;;;;;2.94;87.72;99190.52;84584;1329;22616;-74
2022/01/28 06:13:22;;;;;;;2.00;0.90;;;;;;;2.94;87.85;99194.81;84555;1330;22660;-73
2022/01/28 06:15:30;;;;;;;2.00;0.60;;;;;;;2.96;87.92;99190.30;84560;1329;24290;-76
2022/01/28 06:17:39;;;;;;;1.10;0.70;;;;;;;2.96;87.82;99196.52;84542;1329;22639;-83
2022/01/28 06:19:48;;;;;;;1.30;1.20;;;;;;;2.97;87.89;99199.42;84542;1327;22647;-82
2022/01/28 06:21:53;;;;;;;1.20;1.10;;;;;;;2.95;87.63;99204.45;84586;1329;28151;-82
2022/01/28 06:24:02;;;;;;;2.60;1.30;;;;;;;2.94;87.71;99204.98;84566;1329;24116;-82
2022/01/28 06:26:08;;;;;;;1.90;1.30;;;;;;;2.96;88.10;99205.11;84567;1329;22613;-74
2022/01/28 06:28:17;;;;;;;2.20;1.20;;;;;;;2.98;87.75;99207.30;84550;1330;22596;-74
2022/01/28 06:30:23;;;;;;;4.50;1.70;;;;;;;2.99;87.87;99213.83;84558;1323;22768;-74
2022/01/28 06:32:29;;;;;;;1.50;0.90;;;;;;;3.00;87.83;99216.36;84593;1329;22589;-75
2022/01/28 06:34:38;;;;;;;2.80;0.80;;;;;;;3.01;87.85;99217.39;84564;1329;22597;-74
2022/01/28 06:36:48;;;;;;;7.00;1.20;;;;;;;3.01;87.80;99221.70;84578;1329;22625;-84
2022/01/28 06:38:53;;;;;;;2.70;0.80;;;;;;;3.02;87.71;99226.16;84607;1330;24450;-82
2022/01/28 06:41:02;;;;;;;2.20;0.80;;;;;;;3.03;87.79;99226.63;84599;1324;22751;-83
2022/01/28 06:43:10;;;;;;;3.30;1.20;;;;;;;3.05;87.90;99232.98;84571;1329;24332;-83
2022/01/28 06:45:19;;;;;;;1.50;0.90;;;;;;;3.04;87.78;99240.58;84565;1324;22806;-82
2022/01/28 06:47:26;;;;;;;2.70;1.00;;;;;;;3.01;87.87;99241.16;84580;1329;22759;-82
2022/01/28 06:49:35;;;;;;;1.40;1.00;;;;;;;2.98;87.68;99246.94;84553;1329;24610;-80
2022/01/28 06:51:52;;;;;;;3.60;1.10;;;;;;;2.96;87.80;99245.96;84575;1329;22662;-74
2022/01/28 06:54:01;;;;;;;1.80;1.10;;;;;;;2.94;87.85;99250.45;84555;1331;22680;-74
2022/01/28 06:56:07;;;;;;;2.10;1.10;;;;;;;2.91;87.81;99251.23;84590;1330;22603;-82
2022/01/28 06:58:13;;;;;;;1.90;1.50;;;;;;;2.89;88.01;99257.13;84566;1330;22605;-82
2022/01/28 07:00:20;;;;;;;1.60;0.80;;;;;;;2.90;88.09;99254.86;84584;1329;22771;-83
2022/01/28 07:02:26;;;;;;;3.30;1.30;;;;;;;2.94;88.14;99264.60;84598;1330;22648;-74
2022/01/28 07:04:36;;;;;;;3.80;1.20;;;;;;;2.96;88.29;99264.38;84553;1329;23941;-72
2022/01/28 07:06:42;;;;;;;1.90;1.40;;;;;;;2.97;88.26;99270.55;84597;1330;22627;-81
2022/01/28 07:08:49;;;;;;;5.90;2.00;;;;;;;2.93;88.18;99274.26;84589;1326;22629;-82
2022/01/28 07:10:58;;;;;;;2.80;1.20;;;;;;;2.89;88.27;99282.29;84581;1329;22735;-83
2022/01/28 07:13:07;;;;;;;2.30;1.40;;;;;;;2.85;88.35;99292.36;84586;1329;22565;-83
2022/01/28 07:15:14;;;;;;;3.70;2.00;;;;;;;2.85;88.29;99291.86;84579;1330;25463;-84
2022/01/28 07:17:23;;;;;;;4.90;1.80;;;;;;;2.87;88.24;99300.44;84566;1330;23940;-72
2022/01/28 07:19:31;;;;;;;2.70;1.30;;;;;;;2.89;88.39;99306.22;84576;1330;24002;-71
2022/01/28 07:21:39;;;;;;;3.10;1.80;;;;;;;2.90;88.23;99308.95;84536;1330;22624;-86
2022/01/28 07:23:48;;;;;;;2.60;1.40;;;;;;;2.91;88.19;99311.87;84577;1330;22681;-85
2022/01/28 07:25:59;;;;;;;3.10;2.50;;;;;;;2.92;88.33;99318.75;84600;1329;24289;-87
2022/01/28 07:28:06;;;;;;;5.10;2.80;;;;;;;2.91;88.25;99321.01;84541;1329;23118;-85
2022/01/28 07:30:14;;;;;;;2.90;2.10;;;;;;;2.93;88.53;99326.98;84583;1329;22601;-82
2022/01/28 07:32:24;;;;;;;3.10;2.30;;;;;;;2.95;88.43;99332.27;84564;1329;22652;-69
2022/01/28 07:34:31;;;;;;;1.80;1.20;;;;;;;2.97;88.20;99330.17;84518;1328;22708;-72
2022/01/28 07:36:40;;;;;;;1.10;1.00;;;;;;;2.98;88.10;99334.95;84545;1331;22811;-72
2022/01/28 07:38:46;;;;;;;1.90;1.60;;;;;;;3.00;88.07;99344.38;84557;1330;22605;-72
2022/01/28 07:40:58;;;;;;;5.00;1.80;;;;;;;2.99;88.11;99346.81;84541;1329;22600;-73
2022/01/28 07:43:08;;;;;;;2.70;1.40;;;;;;;2.97;87.98;99347.73;84600;1330;23900;-73
2022/01/28 07:45:16;;;;;;;2.30;1.40;;;;;;;2.94;88.08;99357.96;84571;1328;22607;-73
2022/01/28 07:47:25;;;;;;;2.10;1.70;;;;;;;2.95;88.04;99361.91;84568;1329;22709;-72
2022/01/28 07:49:34;;;;;;;2.00;1.40;;;;;;;2.98;88.09;99365.13;84556;1331;22600;-73
2022/01/28 07:51:45;;;;;;;13.20;7.10;;;;;;;2.97;88.09;99372.70;84563;1329;22612;-75
2022/01/28 07:53:52;;;;;;;2.60;1.00;;;;;;;2.96;87.94;99377.40;84591;1324;22619;-73
2022/01/28 07:55:58;;;;;;;1.10;0.90;;;;;;;2.97;87.94;99383.92;84569;1330;24266;-81
2022/01/28 07:58:04;;;;;;;2.90;1.10;;;;;;;2.97;87.97;99392.54;84570;1331;22679;-81
2022/01/28 08:00:14;;;;;;;2.40;1.50;;;;;;;2.97;87.90;99397.01;84613;1330;22614;-80
2022/01/28 08:02:20;;;;;;;3.20;1.50;;;;;;;3.00;87.93;99399.86;84594;1334;22577;-81
2022/01/28 08:04:28;;;;;;;1.80;1.00;;;;;;;3.00;88.09;99408.64;84565;1329;22602;-80
2022/01/28 08:06:38;;;;;;;1.50;1.10;;;;;;;3.01;87.86;99412.94;84587;1328;22613;-83
2022/01/28 08:08:47;;;;;;;2.90;1.50;;;;;;;3.01;87.77;99411.39;84549;1330;22613;-83
2022/01/28 08:11:00;;;;;;;1.20;1.00;;;;;;;3.02;87.81;99421.70;84607;1329;22764;-71
2022/01/28 08:13:13;;;;;;;1.80;1.40;;;;;;;3.02;87.77;99427.21;84501;1332;24276;-71
2022/01/28 08:15:24;;;;;;;;;;;;;;;3.02;87.66;99433.92;84585;1332;25390;-73
2022/01/28 08:17:30;;;;;;;5.10;2.30;;;;;;;2.99;87.70;99433.13;84571;1330;22604;-83
2022/01/28 08:19:37;;;;;;;3.30;1.10;;;;;;;3.00;87.57;99442.40;84603;1329;22653;-82
2022/01/28 08:21:46;;;;;;;1.90;1.20;;;;;;;3.01;87.68;99447.23;84577;1330;25565;-73
2022/01/28 08:23:52;;;;;;;1.10;0.90;;;;;;;3.02;87.79;99454.77;84586;1329;22820;-72
2022/01/28 08:26:01;;;;;;;1.40;1.30;;;;;;;3.05;87.56;99455.91;84584;1329;24263;-91
2022/01/28 08:28:10;;;;;;;0.80;0.80;;;;;;;3.05;87.47;99469.88;84587;1330;22879;-88
2022/01/28 08:30:19;;;;;;;1.10;1.00;;;;;;;3.04;87.30;99471.95;84634;1329;24064;-91
2022/01/28 08:32:27;;;;;;;1.10;1.00;;;;;;;3.04;87.08;99469.90;84609;1330;25612;-91
2022/01/28 08:34:33;;;;;;;2.50;1.10;;;;;;;3.04;87.17;99474.39;84628;1329;22661;-90
2022/01/28 08:36:45;;;;;;;1.20;0.70;;;;;;;3.03;87.11;99487.15;84609;1331;24243;-89
2022/01/28 08:38:57;;;;;;;1.30;0.80;;;;;;;3.01;86.79;99493.92;84598;1330;22600;-82
2022/01/28 08:41:05;;;;;;;1.00;0.60;;;;;;;2.99;86.89;99495.15;84637;1328;22661;-91
2022/01/28 08:43:11;;;;;;;1.40;1.10;;;;;;;3.01;86.95;99505.12;84676;1330;26593;-94
2022/01/28 08:45:20;;;;;;;2.50;1.00;;;;;;;3.02;86.98;99514.05;84852;1331;25453;-83
2022/01/28 08:47:27;;;;;;;1.00;0.70;;;;;;;3.05;86.86;99512.60;84604;1329;22611;-73
2022/01/28 08:49:36;;;;;;;0.70;0.70;;;;;;;3.05;86.92;99524.33;84603;1329;22614;-73
2022/01/28 08:51:42;;;;;;;1.30;0.90;;;;;;;3.05;86.83;99530.52;84639;1330;22697;-75
2022/01/28 08:53:48;;;;;;;1.70;1.00;;;;;;;3.04;86.42;99529.34;84581;1329;22617;-73
2022/01/28 08:55:57;;;;;;;2.70;1.50;;;;;;;3.02;86.64;99538.69;83895;1327;1003835;-81
2022/01/28 08:58:05;;;;;;;3.30;1.10;;;;;;;3.01;86.47;99546.11;84544;1330;22677;-82
2022/01/28 09:00:18;;;;;;;1.60;0.70;;;;;;;3.04;86.72;99548.29;84556;1326;22825;-81
2022/01/28 09:02:23;;;;;;;0.90;0.80;;;;;;;3.04;86.49;99560.01;84586;1330;22629;-81
2022/01/28 09:04:34;;;;;;;0.80;0.70;;;;;;;3.03;86.47;99569.85;84585;1330;22613;-81
2022/01/28 09:06:44;;;;;;;0.70;0.70;;;;;;;3.02;86.50;99573.85;84580;1330;22685;-81
2022/01/28 09:08:54;;;;;;;0.70;0.60;;;;;;;3.02;86.47;99581.41;84555;1331;22763;-81
2022/01/28 09:11:29;;;;;;;2.00;0.80;;;;;;;3.03;86.63;99587.95;84612;1331;22672;-80
2022/01/28 09:13:28;;;;;;;1.60;0.70;;;;;;;3.04;86.35;99597.05;84575;1332;22801;-82
2022/01/28 09:15:35;;;;;;;1.20;0.70;;;;;;;3.03;86.35;99601.55;84605;1330;22615;-74
2022/01/28 09:17:45;;;;;;;1.10;0.80;;;;;;;3.03;86.26;99607.40;84551;1333;22937;-74
2022/01/28 09:19:50;;;;;;;;;;;;;;;3.03;85.99;99615.85;84594;1327;22593;-73
2022/01/28 09:22:04;;;;;;;1.10;0.90;;;;;;;3.03;86.19;99616.19;84606;1330;25436;-74
2022/01/28 09:24:13;;;;;;;1.60;1.00;;;;;;;3.05;86.22;99627.19;84609;1326;22612;-74
2022/01/28 09:26:24;;;;;;;2.20;1.20;;;;;;;3.06;86.16;99632.35;84516;1331;22648;-73
2022/01/28 09:28:30;;;;;;;1.60;0.90;;;;;;;3.02;85.64;99648.09;84597;1330;22758;-74
2022/01/28 09:30:39;;;;;;;2.00;1.40;;;;;;;3.01;85.72;99648.98;84638;1330;25990;-81
2022/01/28 09:32:46;;;;;;;1.80;1.60;;;;;;;2.98;85.75;99657.48;84568;1327;26240;-81
2022/01/28 09:34:52;;;;;;;1.20;0.90;;;;;;;2.96;85.74;99663.54;84580;1330;25442;-82
2022/01/28 09:37:01;;;;;;;1.50;0.90;;;;;;;2.96;86.14;99663.55;84604;1330;22625;-82
2022/01/28 09:39:08;;;;;;;1.30;1.10;;;;;;;2.97;85.99;99671.62;84628;1330;22734;-82
2022/01/28 09:41:14;;;;;;;1.20;0.80;;;;;;;2.98;86.08;99678.33;84574;1328;24379;-82
2022/01/28 09:43:26;;;;;;;1.20;0.80;;;;;;;2.99;85.80;99685.72;84582;1331;24025;-79
2022/01/28 09:45:37;;;;;;;1.50;0.80;;;;;;;3.00;85.91;99688.10;84621;1332;22617;-73
2022/01/28 09:47:46;;;;;;;1.90;0.80;;;;;;;3.01;85.78;99696.52;84566;1329;22718;-74
2022/01/28 09:49:53;;;;;;;1.90;1.00;;;;;;;3.02;85.68;99703.58;84563;1327;22675;-74
2022/01/28 09:51:59;;;;;;;1.10;0.90;;;;;;;3.04;86.09;99705.27;84596;1329;24014;-74
2022/01/28 09:54:08;;;;;;;1.60;0.80;;;;;;;3.07;85.86;99707.09;84576;1326;22940;-74
2022/01/28 09:56:14;;;;;;;1.10;1.00;;;;;;;3.07;85.49;99717.78;84581;1330;22844;-82
2022/01/28 09:58:20;;;;;;;0.70;0.70;;;;;;;3.07;85.60;99724.68;84604;1331;22710;-82
2022/01/28 10:00:27;;;;;;;1.90;1.60;;;;;;;3.07;85.72;99729.17;84584;1329;24009;-81
2022/01/28 10:02:54;;;;;;;3.80;1.50;;;;;;;3.08;85.60;99726.89;84564;1327;22702;-74
2022/01/28 10:05:01;;;;;;;3.10;2.00;;;;;;;3.08;85.12;99730.70;84585;1330;25309;-74
2022/01/28 10:07:13;;;;;;;4.60;2.20;;;;;;;3.07;84.96;99738.98;84564;1330;22668;-71
2022/01/28 10:09:22;;;;;;;3.00;1.30;;;;;;;3.05;84.72;99734.89;84557;1330;22594;-73
2022/01/28 10:11:31;;;;;;;2.70;1.10;;;;;;;3.04;85.22;99747.47;84616;1330;22613;-72
2022/01/28 10:13:42;;;;;;;1.70;1.10;;;;;;;3.04;85.07;99750.40;84568;1330;22800;-73
2022/01/28 10:16:13;;;;;;;3.50;1.20;;;;;;;3.04;85.20;99754.70;84579;1327;22822;-80
2022/01/28 10:18:19;;;;;;;2.00;0.90;;;;;;;3.03;84.78;99754.39;84583;1323;22771;-82
2022/01/28 10:20:30;;;;;;;0.90;0.70;;;;;;;3.03;84.85;99764.55;84582;1329;22592;-80
2022/01/28 10:22:51;;;;;;;1.40;0.70;;;;;;;3.02;84.42;99768.02;84575;1329;23058;-80
2022/01/28 10:25:03;;;;;;;1.50;1.30;;;;;;;2.98;84.14;99775.15;84597;1329;22681;-81
2022/01/28 10:27:09;;;;;;;1.90;1.30;;;;;;;2.98;84.14;99779.29;84484;1331;24239;-81
2022/01/28 10:29:20;;;;;;;2.30;1.40;;;;;;;2.97;84.23;99782.06;84605;1328;23070;-81
2022/01/28 10:31:48;;;;;;;3.50;1.60;;;;;;;2.98;84.23;99786.69;84599;1330;22628;-76
2022/01/28 10:33:56;;;;;;;2.40;1.80;;;;;;;3.00;84.54;99788.20;84505;1333;22709;-73
2022/01/28 10:36:09;;;;;;;2.00;1.20;;;;;;;3.05;84.25;99799.67;84565;1329;25385;-81
2022/01/28 10:38:30;;;;;;;1.90;1.30;;;;;;;3.06;83.83;99805.86;84585;1329;22655;-81
2022/01/28 10:40:42;;;;;;;2.10;1.20;;;;;;;3.08;83.53;99809.96;84581;1329;22748;-80
2022/01/28 10:43:00;;;;;;;2.80;1.40;;;;;;;3.10;83.36;99810.96;84495;1330;25780;-80
2022/01/28 10:45:11;;;;;;;1.90;1.10;;;;;;;3.18;83.77;99809.29;84565;1328;22609;-82
2022/01/28 10:47:32;;;;;;;2.40;0.90;;;;;;;3.25;83.72;99815.55;84637;1330;22672;-82
2022/01/28 10:49:48;;;;;;;2.10;1.00;;;;;;;3.30;83.40;99819.06;84547;1332;22802;-80
2022/01/28 10:52:02;;;;;;;2.10;1.30;;;;;;;3.29;83.23;99828.90;84610;1330;22641;-80
2022/01/28 10:54:20;;;;;;;2.20;1.30;;;;;;;3.31;83.38;99838.55;84558;1333;22689;-77
2022/01/28 10:56:30;;;;;;;2.60;1.30;;;;;;;3.30;83.04;99839.76;84570;1329;22672;-79
2022/01/28 10:58:45;;;;;;;2.00;1.00;;;;;;;3.28;82.70;99845.83;84573;1330;22587;-81
2022/01/28 11:00:57;;;;;;;1.60;1.00;;;;;;;3.24;82.34;99846.94;84612;1326;22613;-84
2022/01/28 11:03:05;;;;;;;1.30;1.00;;;;;;;3.19;82.10;99856.32;84595;1328;22596;-80
2022/01/28 11:05:25;;;;;;;2.80;1.20;;;;;;;3.18;81.93;99859.78;84583;1330;25326;-80
2022/01/28 11:07:37;;;;;;;2.30;0.90;;;;;;;3.18;81.68;99859.61;84491;1332;24229;-80
2022/01/28 11:09:43;;;;;;;3.40;1.20;;;;;;;3.18;81.60;99868.58;84572;1324;22851;-82
2022/01/28 11:11:49;;;;;;;0.90;0.70;;;;;;;3.16;81.46;99865.86;84656;1330;22664;-73